sensor_id;sensor_type;location;lat;lon;timestamp;pressure;altitude;pressure_sealevel;temperature;humidity
64886;BME280;51514;52.206;5.114;2023-07-29T00:01:43;100772.31;;;24.28;63.53
64886;BME280;51514;52.206;5.114;2023-07-29T00:04:08;100775.06;;;24.28;63.39
64886;BME280;51514;52.206;5.114;2023-07-29T00:06:35;100766.81;;;24.28;63.53
64886;BME280;51514;52.206;5.114;2023-07-29T00:09:01;100757.72;;;24.27;63.35
64886;BME280;51514;52.206;5.114;2023-07-29T00:11:27;100753.28;;;24.26;63.50
64886;BME280;51514;52.206;5.114;2023-07-29T00:13:52;100753.53;;;24.25;63.44
64886;BME280;51514;52.206;5.114;2023-07-29T00:16:18;100754.38;;;24.25;63.43
64886;BME280;51514;52.206;5.114;2023-07-29T00:18:47;100754.38;;;24.25;63.24
64886;BME280;51514;52.206;5.114;2023-07-29T00:21:12;100749.94;;;24.24;63.32
64886;BME280;51514;52.206;5.114;2023-07-29T00:23:38;100739.75;;;24.25;63.38
64886;BME280;51514;52.206;5.114;2023-07-29T00:26:03;100749.94;;;24.24;63.29
64886;BME280;51514;52.206;5.114;2023-07-29T00:28:28;100751.03;;;24.23;63.18
64886;BME280;51514;52.206;5.114;2023-07-29T00:30:54;100749.38;;;24.22;63.48
64886;BME280;51514;52.206;5.114;2023-07-29T00:33:19;100751.03;;;24.23;63.14
64886;BME280;51514;52.206;5.114;2023-07-29T00:35:46;100746.63;;;24.22;63.53
64886;BME280;51514;52.206;5.114;2023-07-29T00:38:11;100738.56;;;24.21;63.38
64886;BME280;51514;52.206;5.114;2023-07-29T00:40:37;100738.56;;;24.21;63.16
64886;BME280;51514;52.206;5.114;2023-07-29T00:43:02;100737.72;;;24.20;63.49
64886;BME280;51514;52.206;5.114;2023-07-29T00:45:29;100732.22;;;24.20;63.48
64886;BME280;51514;52.206;5.114;2023-07-29T00:47:54;100724.19;;;24.19;63.40
64886;BME280;51514;52.206;5.114;2023-07-29T00:50:20;100730.56;;;24.19;63.41
64886;BME280;51514;52.206;5.114;2023-07-29T00:52:46;100717.84;;;24.18;63.36
64886;BME280;51514;52.206;5.114;2023-07-29T00:55:11;100726.97;;;24.19;63.50
64886;BME280;51514;52.206;5.114;2023-07-29T00:57:37;100728.03;;;24.18;63.26
64886;BME280;51514;52.206;5.114;2023-07-29T01:00:03;100722.53;;;24.18;63.36
64886;BME280;51514;52.206;5.114;2023-07-29T01:02:30;100717.03;;;24.18;63.39
64886;BME280;51514;52.206;5.114;2023-07-29T01:04:58;100717.25;;;24.16;63.21
64886;BME280;51514;52.206;5.114;2023-07-29T01:10:04;100712.84;;;24.15;63.35
64886;BME280;51514;52.206;5.114;2023-07-29T01:15:15;100717.50;;;24.15;63.09
64886;BME280;51514;52.206;5.114;2023-07-29T01:18:23;100716.84;;;24.08;63.38
64886;BME280;51514;52.206;5.114;2023-07-29T01:20:53;100713.91;;;24.14;63.30
64886;BME280;51514;52.206;5.114;2023-07-29T01:23:33;100715.28;;;24.12;63.53
64886;BME280;51514;52.206;5.114;2023-07-29T01:25:59;100708.41;;;24.14;63.16
64886;BME280;51514;52.206;5.114;2023-07-29T01:28:26;100700.41;;;24.13;63.37
64886;BME280;51514;52.206;5.114;2023-07-29T01:31:01;100707.81;;;24.12;63.32
64886;BME280;51514;52.206;5.114;2023-07-29T01:33:32;100708.66;;;24.13;63.32
64886;BME280;51514;52.206;5.114;2023-07-29T01:36:08;100700.91;;;24.10;62.98
64886;BME280;51514;52.206;5.114;2023-07-29T01:38:38;100700.66;;;24.11;62.99
64886;BME280;51514;52.206;5.114;2023-07-29T01:41:07;100697.91;;;24.11;63.30
64886;BME280;51514;52.206;5.114;2023-07-29T01:43:33;100692.41;;;24.11;63.60
64886;BME280;51514;52.206;5.114;2023-07-29T01:46:00;100695.16;;;24.11;63.08
64886;BME280;51514;52.206;5.114;2023-07-29T01:48:26;100695.16;;;24.11;63.23
64886;BME280;51514;52.206;5.114;2023-07-29T01:50:52;100692.66;;;24.10;63.12
64886;BME280;51514;52.206;5.114;2023-07-29T01:53:18;100692.91;;;24.08;63.05
64886;BME280;51514;52.206;5.114;2023-07-29T01:55:43;100695.66;;;24.08;63.27
64886;BME280;51514;52.206;5.114;2023-07-29T01:58:10;100684.63;;;24.08;62.99
64886;BME280;51514;52.206;5.114;2023-07-29T02:00:35;100702.84;;;24.09;63.19
64886;BME280;51514;52.206;5.114;2023-07-29T02:03:01;100692.31;;;24.06;63.18
64886;BME280;51514;52.206;5.114;2023-07-29T02:05:26;100694.81;;;24.08;63.22
64886;BME280;51514;52.206;5.114;2023-07-29T02:07:51;100684.88;;;24.07;63.08
64886;BME280;51514;52.206;5.114;2023-07-29T02:10:17;100687.63;;;24.07;63.41
64886;BME280;51514;52.206;5.114;2023-07-29T02:12:42;100688.72;;;24.06;63.13
64886;BME280;51514;52.206;5.114;2023-07-29T02:15:08;100693.41;;;24.05;63.13
64886;BME280;51514;52.206;5.114;2023-07-29T02:17:35;100681.28;;;24.06;63.14
64886;BME280;51514;52.206;5.114;2023-07-29T02:20:01;100685.97;;;24.06;62.90
64886;BME280;51514;52.206;5.114;2023-07-29T02:22:26;100677.94;;;24.04;63.21
64886;BME280;51514;52.206;5.114;2023-07-29T02:24:52;100680.94;;;24.02;63.20
64886;BME280;51514;52.206;5.114;2023-07-29T02:27:17;100676.28;;;24.03;63.16
64886;BME280;51514;52.206;5.114;2023-07-29T02:29:42;100669.09;;;24.02;63.06
64886;BME280;51514;52.206;5.114;2023-07-29T02:32:08;100664.41;;;24.02;63.10
64886;BME280;51514;52.206;5.114;2023-07-29T02:34:34;100668.25;;;24.01;63.00
64886;BME280;51514;52.206;5.114;2023-07-29T02:36:59;100662.75;;;24.01;63.29
64886;BME280;51514;52.206;5.114;2023-07-29T02:39:25;100665.78;;;24.00;63.00
64886;BME280;51514;52.206;5.114;2023-07-29T02:41:50;100667.47;;;24.01;62.99
64886;BME280;51514;52.206;5.114;2023-07-29T02:44:16;100677.63;;;24.00;62.79
64886;BME280;51514;52.206;5.114;2023-07-29T02:46:41;100677.63;;;24.00;62.99
64886;BME280;51514;52.206;5.114;2023-07-29T02:49:06;100670.47;;;23.99;63.06
64886;BME280;51514;52.206;5.114;2023-07-29T02:51:32;100675.13;;;23.99;63.04
64886;BME280;51514;52.206;5.114;2023-07-29T02:53:57;100678.97;;;23.98;62.77
64886;BME280;51514;52.206;5.114;2023-07-29T02:56:23;100664.13;;;23.99;63.36
64886;BME280;51514;52.206;5.114;2023-07-29T02:58:49;100669.88;;;23.97;63.04
64886;BME280;51514;52.206;5.114;2023-07-29T03:01:17;100657.78;;;23.98;62.97
64886;BME280;51514;52.206;5.114;2023-07-29T03:03:43;100657.78;;;23.98;62.98
64886;BME280;51514;52.206;5.114;2023-07-29T03:06:10;100655.84;;;23.99;63.14
64886;BME280;51514;52.206;5.114;2023-07-29T03:08:36;100654.19;;;23.98;63.24
64886;BME280;51514;52.206;5.114;2023-07-29T03:11:10;100657.44;;;23.95;63.10
64886;BME280;51514;52.206;5.114;2023-07-29T03:13:36;100646.75;;;23.98;63.02
64886;BME280;51514;52.206;5.114;2023-07-29T03:16:07;100639.81;;;23.96;63.24
64886;BME280;51514;52.206;5.114;2023-07-29T03:18:33;100639.56;;;23.97;62.97
64886;BME280;51514;52.206;5.114;2023-07-29T03:20:58;100640.41;;;23.98;63.18
64886;BME280;51514;52.206;5.114;2023-07-29T03:23:24;100653.09;;;23.99;63.00
64886;BME280;51514;52.206;5.114;2023-07-29T03:25:49;100648.66;;;23.98;63.01
64886;BME280;51514;52.206;5.114;2023-07-29T03:28:16;100646.75;;;23.98;63.11
64886;BME280;51514;52.206;5.114;2023-07-29T03:30:42;100647.84;;;23.97;62.99
64886;BME280;51514;52.206;5.114;2023-07-29T03:33:07;100644.25;;;23.97;62.95
64886;BME280;51514;52.206;5.114;2023-07-29T03:35:33;100649.75;;;23.97;62.96
64886;BME280;51514;52.206;5.114;2023-07-29T03:37:58;100649.75;;;23.97;63.06
64886;BME280;51514;52.206;5.114;2023-07-29T03:40:23;100643.66;;;23.95;63.20
64886;BME280;51514;52.206;5.114;2023-07-29T03:42:49;100644.75;;;23.94;63.04
64886;BME280;51514;52.206;5.114;2023-07-29T03:45:14;100654.66;;;23.95;62.79
64886;BME280;51514;52.206;5.114;2023-07-29T03:47:40;100652.75;;;23.95;62.78
64886;BME280;51514;52.206;5.114;2023-07-29T03:50:05;100661.25;;;23.94;62.82
64886;BME280;51514;52.206;5.114;2023-07-29T03:52:31;100677.78;;;23.94;63.19
64886;BME280;51514;52.206;5.114;2023-07-29T03:54:56;100677.78;;;23.94;62.95
64886;BME280;51514;52.206;5.114;2023-07-29T03:57:22;100672.28;;;23.94;63.10
64886;BME280;51514;52.206;5.114;2023-07-29T03:59:47;100671.44;;;23.93;62.63
64886;BME280;51514;52.206;5.114;2023-07-29T04:02:13;100672.53;;;23.92;62.71
64886;BME280;51514;52.206;5.114;2023-07-29T04:04:38;100682.72;;;23.92;62.90
64886;BME280;51514;52.206;5.114;2023-07-29T04:07:04;100677.44;;;23.90;62.96
64886;BME280;51514;52.206;5.114;2023-07-29T04:09:29;100666.44;;;23.90;62.89
64886;BME280;51514;52.206;5.114;2023-07-29T04:11:55;100650.75;;;23.91;62.98
64886;BME280;51514;52.206;5.114;2023-07-29T04:14:20;100648.25;;;23.89;62.77
64886;BME280;51514;52.206;5.114;2023-07-29T04:16:45;100647.44;;;23.89;62.96
64886;BME280;51514;52.206;5.114;2023-07-29T04:19:11;100664.78;;;23.89;62.94
64886;BME280;51514;52.206;5.114;2023-07-29T04:21:36;100670.53;;;23.88;63.02
64886;BME280;51514;52.206;5.114;2023-07-29T04:24:02;100670.53;;;23.88;62.83
64886;BME280;51514;52.206;5.114;2023-07-29T04:26:27;100666.72;;;23.89;63.00
64886;BME280;51514;52.206;5.114;2023-07-29T04:28:52;100667.78;;;23.88;62.83
64886;BME280;51514;52.206;5.114;2023-07-29T04:31:18;100665.03;;;23.88;62.75
64886;BME280;51514;52.206;5.114;2023-07-29T04:33:43;100656.78;;;23.88;62.77
64886;BME280;51514;52.206;5.114;2023-07-29T04:36:08;100661.69;;;23.86;62.89
64886;BME280;51514;52.206;5.114;2023-07-29T04:38:34;100667.19;;;23.86;62.67
64886;BME280;51514;52.206;5.114;2023-07-29T04:41:00;100667.19;;;23.86;62.91
64886;BME280;51514;52.206;5.114;2023-07-29T04:43:31;100663.63;;;23.85;62.92
64886;BME280;51514;52.206;5.114;2023-07-29T04:45:57;100657.25;;;23.85;63.03
64886;BME280;51514;52.206;5.114;2023-07-29T04:48:22;100655.34;;;23.85;62.74
64886;BME280;51514;52.206;5.114;2023-07-29T04:50:48;100658.09;;;23.85;62.91
64886;BME280;51514;52.206;5.114;2023-07-29T04:53:13;100655.59;;;23.84;62.67
64886;BME280;51514;52.206;5.114;2023-07-29T04:55:41;100657.50;;;23.83;62.97
64886;BME280;51514;52.206;5.114;2023-07-29T04:58:07;100666.38;;;23.85;62.74
64886;BME280;51514;52.206;5.114;2023-07-29T05:00:33;100669.13;;;23.85;62.77
64886;BME280;51514;52.206;5.114;2023-07-29T05:02:58;100680.13;;;23.85;62.64
64886;BME280;51514;52.206;5.114;2023-07-29T05:05:24;100681.22;;;23.84;62.55
64886;BME280;51514;52.206;5.114;2023-07-29T05:07:49;100676.78;;;23.83;62.68
64886;BME280;51514;52.206;5.114;2023-07-29T05:10:15;100671.03;;;23.85;62.70
64886;BME280;51514;52.206;5.114;2023-07-29T05:12:40;100665.78;;;23.83;62.74
64886;BME280;51514;52.206;5.114;2023-07-29T05:15:06;100673.19;;;23.83;62.60
64886;BME280;51514;52.206;5.114;2023-07-29T05:17:31;100685.88;;;23.84;62.64
64886;BME280;51514;52.206;5.114;2023-07-29T05:19:57;100683.13;;;23.84;63.00
64886;BME280;51514;52.206;5.114;2023-07-29T05:22:22;100682.28;;;23.83;62.59
64886;BME280;51514;52.206;5.114;2023-07-29T05:24:48;100678.72;;;23.83;62.56
64886;BME280;51514;52.206;5.114;2023-07-29T05:27:13;100675.94;;;23.83;62.56
64886;BME280;51514;52.206;5.114;2023-07-29T05:29:38;100675.94;;;23.83;62.87
64886;BME280;51514;52.206;5.114;2023-07-29T05:32:04;100677.88;;;23.82;62.63
64886;BME280;51514;52.206;5.114;2023-07-29T05:34:29;100675.94;;;23.83;62.88
64886;BME280;51514;52.206;5.114;2023-07-29T05:36:55;100678.72;;;23.83;62.57
64886;BME280;51514;52.206;5.114;2023-07-29T05:39:20;100682.53;;;23.82;62.85
64886;BME280;51514;52.206;5.114;2023-07-29T05:41:45;100685.28;;;23.82;62.90
64886;BME280;51514;52.206;5.114;2023-07-29T05:44:11;100680.63;;;23.82;62.77
64886;BME280;51514;52.206;5.114;2023-07-29T05:46:36;100682.53;;;23.82;62.98
64886;BME280;51514;52.206;5.114;2023-07-29T05:49:02;100678.94;;;23.81;62.76
64886;BME280;51514;52.206;5.114;2023-07-29T05:51:28;100668.78;;;23.82;62.67
64886;BME280;51514;52.206;5.114;2023-07-29T05:53:53;100673.19;;;23.83;62.80
64886;BME280;51514;52.206;5.114;2023-07-29T05:56:18;100687.81;;;23.83;62.96
64886;BME280;51514;52.206;5.114;2023-07-29T05:58:44;100694.16;;;23.84;62.84
64886;BME280;51514;52.206;5.114;2023-07-29T06:01:09;100689.47;;;23.84;62.78
64886;BME280;51514;52.206;5.114;2023-07-29T06:03:34;100678.47;;;23.84;62.56
64886;BME280;51514;52.206;5.114;2023-07-29T06:06:00;100672.72;;;23.86;62.71
64886;BME280;51514;52.206;5.114;2023-07-29T06:08:25;100680.13;;;23.85;62.35
64886;BME280;51514;52.206;5.114;2023-07-29T06:10:53;100679.88;;;23.87;62.63
64886;BME280;51514;52.206;5.114;2023-07-29T06:13:19;100684.31;;;23.88;62.26
64886;BME280;51514;52.206;5.114;2023-07-29T06:15:44;100685.41;;;23.87;62.55
64886;BME280;51514;52.206;5.114;2023-07-29T06:18:09;100686.00;;;23.89;62.33
64886;BME280;51514;52.206;5.114;2023-07-29T06:20:35;100680.47;;;23.89;62.42
64886;BME280;51514;52.206;5.114;2023-07-29T06:23:00;100680.47;;;23.89;62.34
64886;BME280;51514;52.206;5.114;2023-07-29T06:25:27;100686.00;;;23.89;62.38
64886;BME280;51514;52.206;5.114;2023-07-29T06:27:52;100701.44;;;23.90;62.50
64886;BME280;51514;52.206;5.114;2023-07-29T06:30:17;100697.56;;;23.91;62.23
64886;BME280;51514;52.206;5.114;2023-07-29T06:32:43;100698.41;;;23.91;62.09
64886;BME280;51514;52.206;5.114;2023-07-29T06:35:08;100696.47;;;23.92;62.32
64886;BME280;51514;52.206;5.114;2023-07-29T06:37:33;100696.47;;;23.92;62.17
64886;BME280;51514;52.206;5.114;2023-07-29T06:39:59;100698.16;;;23.93;62.31
64886;BME280;51514;52.206;5.114;2023-07-29T06:42:24;100703.41;;;23.94;62.22
64886;BME280;51514;52.206;5.114;2023-07-29T06:44:49;100701.75;;;23.93;62.15
64886;BME280;51514;52.206;5.114;2023-07-29T06:47:15;100703.41;;;23.94;62.37
64886;BME280;51514;52.206;5.114;2023-07-29T06:49:40;100699.81;;;23.94;62.08
64886;BME280;51514;52.206;5.114;2023-07-29T06:52:05;100703.41;;;23.94;62.19
64886;BME280;51514;52.206;5.114;2023-07-29T06:54:31;100707.84;;;23.95;61.88
64886;BME280;51514;52.206;5.114;2023-07-29T06:56:56;100700.41;;;23.96;62.20
64886;BME280;51514;52.206;5.114;2023-07-29T06:59:22;100704.25;;;23.95;61.80
64886;BME280;51514;52.206;5.114;2023-07-29T07:01:47;100700.41;;;23.96;62.18
64886;BME280;51514;52.206;5.114;2023-07-29T07:04:12;100700.16;;;23.97;61.96
64886;BME280;51514;52.206;5.114;2023-07-29T07:06:38;100692.16;;;23.96;62.07
64886;BME280;51514;52.206;5.114;2023-07-29T07:09:03;100699.34;;;23.97;61.96
64886;BME280;51514;52.206;5.114;2023-07-29T07:11:29;100695.50;;;23.98;62.29
64886;BME280;51514;52.206;5.114;2023-07-29T07:13:54;100704.59;;;23.98;61.91
64886;BME280;51514;52.206;5.114;2023-07-29T07:16:20;100701.00;;;23.98;62.18
64886;BME280;51514;52.206;5.114;2023-07-29T07:18:45;100701.84;;;23.98;62.41
64886;BME280;51514;52.206;5.114;2023-07-29T07:21:10;100701.00;;;23.98;61.93
64886;BME280;51514;52.206;5.114;2023-07-29T07:23:36;100701.00;;;23.98;62.16
64886;BME280;51514;52.206;5.114;2023-07-29T07:26:01;100705.44;;;23.99;62.12
64886;BME280;51514;52.206;5.114;2023-07-29T07:28:27;100704.34;;;24.00;62.01
64886;BME280;51514;52.206;5.114;2023-07-29T07:30:52;100699.69;;;24.00;62.10
64886;BME280;51514;52.206;5.114;2023-07-29T07:33:17;100706.56;;;24.03;61.95
64886;BME280;51514;52.206;5.114;2023-07-29T07:35:43;100709.94;;;24.05;62.21
64886;BME280;51514;52.206;5.114;2023-07-29T07:38:08;100707.16;;;24.05;62.00
64886;BME280;51514;52.206;5.114;2023-07-29T07:40:35;100704.16;;;24.07;62.03
64886;BME280;51514;52.206;5.114;2023-07-29T07:43:01;100705.00;;;24.07;62.00
64886;BME280;51514;52.206;5.114;2023-07-29T07:45:26;100705.00;;;24.07;61.90
64886;BME280;51514;52.206;5.114;2023-07-29T07:47:52;100718.53;;;24.09;61.98
64886;BME280;51514;52.206;5.114;2023-07-29T07:50:19;100712.19;;;24.08;61.96
64886;BME280;51514;52.206;5.114;2023-07-29T07:52:44;100709.44;;;24.08;62.00
64886;BME280;51514;52.206;5.114;2023-07-29T07:55:09;100710.28;;;24.09;62.19
64886;BME280;51514;52.206;5.114;2023-07-29T07:57:35;100712.78;;;24.10;62.13
64886;BME280;51514;52.206;5.114;2023-07-29T08:00:00;100712.53;;;24.12;62.02
64886;BME280;51514;52.206;5.114;2023-07-29T08:02:25;100716.94;;;24.13;62.18
64886;BME280;51514;52.206;5.114;2023-07-29T08:04:50;100707.81;;;24.12;61.93
64886;BME280;51514;52.206;5.114;2023-07-29T08:07:16;100715.00;;;24.13;62.12
64886;BME280;51514;52.206;5.114;2023-07-29T08:09:41;100715.00;;;24.13;61.88
64886;BME280;51514;52.206;5.114;2023-07-29T08:12:07;100709.50;;;24.13;61.91
64886;BME280;51514;52.206;5.114;2023-07-29T08:14:32;100711.16;;;24.14;62.34
64886;BME280;51514;52.206;5.114;2023-07-29T08:16:58;100713.44;;;24.17;62.47
64886;BME280;51514;52.206;5.114;2023-07-29T08:19:23;100714.25;;;24.18;62.43
64886;BME280;51514;52.206;5.114;2023-07-29T08:21:49;100719.53;;;24.19;61.97
64886;BME280;51514;52.206;5.114;2023-07-29T08:24:14;100711.00;;;24.21;62.25
64886;BME280;51514;52.206;5.114;2023-07-29T08:26:39;100720.13;;;24.21;62.26
64886;BME280;51514;52.206;5.114;2023-07-29T08:29:05;100719.06;;;24.22;62.45
64886;BME280;51514;52.206;5.114;2023-07-29T08:31:30;100726.22;;;24.23;62.25
64886;BME280;51514;52.206;5.114;2023-07-29T08:33:59;100727.06;;;24.24;62.31
64886;BME280;51514;52.206;5.114;2023-07-29T08:36:24;100729.81;;;24.24;61.98
64886;BME280;51514;52.206;5.114;2023-07-29T08:38:49;100727.88;;;24.24;62.13
64886;BME280;51514;52.206;5.114;2023-07-29T08:41:37;100726.72;;;24.20;62.30
64886;BME280;51514;52.206;5.114;2023-07-29T08:44:12;100730.66;;;24.24;62.57
64886;BME280;51514;52.206;5.114;2023-07-29T08:46:39;100723.56;;;24.28;62.54
64886;BME280;51514;52.206;5.114;2023-07-29T08:49:04;100714.19;;;24.29;62.58
64886;BME280;51514;52.206;5.114;2023-07-29T08:51:31;100716.72;;;24.31;62.71
64886;BME280;51514;52.206;5.114;2023-07-29T08:53:58;100717.56;;;24.31;62.66
64886;BME280;51514;52.206;5.114;2023-07-29T08:56:24;100717.31;;;24.33;62.50
64886;BME280;51514;52.206;5.114;2023-07-29T08:58:49;100730.81;;;24.34;62.56
64886;BME280;51514;52.206;5.114;2023-07-29T09:01:15;100728.03;;;24.34;62.73
64886;BME280;51514;52.206;5.114;2023-07-29T09:03:41;100722.03;;;24.37;62.98
64886;BME280;51514;52.206;5.114;2023-07-29T09:06:07;100723.72;;;24.38;62.90
64886;BME280;51514;52.206;5.114;2023-07-29T09:08:34;100719.88;;;24.40;62.91
64886;BME280;51514;52.206;5.114;2023-07-29T09:10:59;100721.53;;;24.41;62.62
64886;BME280;51514;52.206;5.114;2023-07-29T09:13:25;100729.81;;;24.41;62.85
64886;BME280;51514;52.206;5.114;2023-07-29T09:15:54;100740.84;;;24.41;62.88
64886;BME280;51514;52.206;5.114;2023-07-29T09:18:21;100728.72;;;24.42;62.79
64886;BME280;51514;52.206;5.114;2023-07-29T09:20:48;100725.97;;;24.42;62.43
64886;BME280;51514;52.206;5.114;2023-07-29T09:23:14;100732.91;;;24.44;62.89
64886;BME280;51514;52.206;5.114;2023-07-29T09:25:39;100733.72;;;24.45;62.83
64886;BME280;51514;52.206;5.114;2023-07-29T09:28:13;100743.09;;;24.44;62.88
64886;BME280;51514;52.206;5.114;2023-07-29T09:30:40;100733.22;;;24.48;62.64
64886;BME280;51514;52.206;5.114;2023-07-29T09:33:06;100731.03;;;24.50;63.01
64886;BME280;51514;52.206;5.114;2023-07-29T09:35:34;100729.97;;;24.51;62.74
64886;BME280;51514;52.206;5.114;2023-07-29T09:38:06;100725.53;;;24.50;62.71
64886;BME280;51514;52.206;5.114;2023-07-29T09:40:36;100731.88;;;24.50;62.51
64886;BME280;51514;52.206;5.114;2023-07-29T09:43:02;100734.38;;;24.52;62.78
64886;BME280;51514;52.206;5.114;2023-07-29T09:45:29;100734.13;;;24.53;62.41
64886;BME280;51514;52.206;5.114;2023-07-29T09:47:56;100728.88;;;24.52;62.32
64886;BME280;51514;52.206;5.114;2023-07-29T09:50:26;100734.38;;;24.52;62.67
64886;BME280;51514;52.206;5.114;2023-07-29T09:52:53;100729.47;;;24.54;62.75
64886;BME280;51514;52.206;5.114;2023-07-29T09:55:21;100744.09;;;24.54;62.59
64886;BME280;51514;52.206;5.114;2023-07-29T09:57:47;100738.56;;;24.54;62.28
64886;BME280;51514;52.206;5.114;2023-07-29T10:00:13;100733.88;;;24.55;62.37
64886;BME280;51514;52.206;5.114;2023-07-29T10:02:40;100741.03;;;24.56;62.60
64886;BME280;51514;52.206;5.114;2023-07-29T10:05:07;100733.88;;;24.55;62.25
64886;BME280;51514;52.206;5.114;2023-07-29T10:07:34;100742.97;;;24.55;62.31
64886;BME280;51514;52.206;5.114;2023-07-29T10:10:01;100745.72;;;24.55;62.27
64886;BME280;51514;52.206;5.114;2023-07-29T10:12:28;100752.06;;;24.56;62.22
64886;BME280;51514;52.206;5.114;2023-07-29T10:14:55;100761.47;;;24.55;62.39
64886;BME280;51514;52.206;5.114;2023-07-29T10:17:20;100754.00;;;24.55;62.18
64886;BME280;51514;52.206;5.114;2023-07-29T10:19:47;100755.94;;;24.55;62.21
64886;BME280;51514;52.206;5.114;2023-07-29T10:22:13;100751.22;;;24.55;62.22
64886;BME280;51514;52.206;5.114;2023-07-29T10:24:42;100741.88;;;24.56;62.25
64886;BME280;51514;52.206;5.114;2023-07-29T10:27:11;100751.22;;;24.55;62.30
64886;BME280;51514;52.206;5.114;2023-07-29T10:29:39;100757.59;;;24.56;62.18
64886;BME280;51514;52.206;5.114;2023-07-29T10:32:07;100754.56;;;24.57;61.88
64886;BME280;51514;52.206;5.114;2023-07-29T10:34:35;100750.16;;;24.56;62.26
64886;BME280;51514;52.206;5.114;2023-07-29T10:37:01;100747.16;;;24.58;62.32
64886;BME280;51514;52.206;5.114;2023-07-29T10:39:27;100747.38;;;24.56;62.19
64886;BME280;51514;52.206;5.114;2023-07-29T10:42:02;100747.09;;;24.53;62.03
64886;BME280;51514;52.206;5.114;2023-07-29T10:47:16;100749.59;;;24.54;61.97
64886;BME280;51514;52.206;5.114;2023-07-29T10:49:47;100750.44;;;24.55;61.94
64886;BME280;51514;52.206;5.114;2023-07-29T10:52:17;100747.38;;;24.56;62.08
64886;BME280;51514;52.206;5.114;2023-07-29T10:54:52;100749.06;;;24.57;61.91
64886;BME280;51514;52.206;5.114;2023-07-29T10:57:38;100751.75;;;24.52;61.97
64886;BME280;51514;52.206;5.114;2023-07-29T11:00:04;100755.41;;;24.58;62.13
64886;BME280;51514;52.206;5.114;2023-07-29T11:02:35;100753.75;;;24.57;62.10
64886;BME280;51514;52.206;5.114;2023-07-29T11:05:15;100757.03;;;24.54;61.94
64886;BME280;51514;52.206;5.114;2023-07-29T11:07:45;100752.34;;;24.54;61.81
64886;BME280;51514;52.206;5.114;2023-07-29T11:10:11;100747.66;;;24.55;62.23
64886;BME280;51514;52.206;5.114;2023-07-29T11:12:44;100758.13;;;24.53;61.97
64886;BME280;51514;52.206;5.114;2023-07-29T11:20:11;100756.75;;;24.55;61.91
64886;BME280;51514;52.206;5.114;2023-07-29T11:22:38;100766.13;;;24.54;61.88
64886;BME280;51514;52.206;5.114;2023-07-29T11:25:04;100770.81;;;24.54;62.03
64886;BME280;51514;52.206;5.114;2023-07-29T11:27:30;100767.22;;;24.53;62.21
64886;BME280;51514;52.206;5.114;2023-07-29T11:30:22;100764.63;;;24.47;62.11
64886;BME280;51514;52.206;5.114;2023-07-29T11:32:58;100760.88;;;24.53;61.98
64886;BME280;51514;52.206;5.114;2023-07-29T11:35:24;100758.13;;;24.53;62.04
64886;BME280;51514;52.206;5.114;2023-07-29T11:37:52;100753.44;;;24.53;61.89
64886;BME280;51514;52.206;5.114;2023-07-29T11:40:21;100758.13;;;24.53;61.86
64886;BME280;51514;52.206;5.114;2023-07-29T11:42:49;100754.81;;;24.56;62.10
64886;BME280;51514;52.206;5.114;2023-07-29T11:45:19;100763.09;;;24.56;62.17
64886;BME280;51514;52.206;5.114;2023-07-29T11:47:45;100763.09;;;24.56;62.15
64886;BME280;51514;52.206;5.114;2023-07-29T11:50:11;100756.50;;;24.57;61.92
64886;BME280;51514;52.206;5.114;2023-07-29T11:52:48;100754.28;;;24.54;62.11
64886;BME280;51514;52.206;5.114;2023-07-29T11:55:14;100744.97;;;24.60;62.03
64886;BME280;51514;52.206;5.114;2023-07-29T11:57:41;100746.91;;;24.59;62.09
64886;BME280;51514;52.206;5.114;2023-07-29T12:00:09;100743.06;;;24.60;62.04
64886;BME280;51514;52.206;5.114;2023-07-29T12:02:37;100752.16;;;24.61;62.03
64886;BME280;51514;52.206;5.114;2023-07-29T12:05:04;100751.06;;;24.62;62.20
64886;BME280;51514;52.206;5.114;2023-07-29T12:07:31;100753.59;;;24.63;62.09
64886;BME280;51514;52.206;5.114;2023-07-29T12:09:57;100759.09;;;24.63;62.10
64886;BME280;51514;52.206;5.114;2023-07-29T12:12:22;100752.50;;;24.64;61.81
64886;BME280;51514;52.206;5.114;2023-07-29T12:14:48;100756.09;;;24.65;61.92
64886;BME280;51514;52.206;5.114;2023-07-29T12:17:14;100745.91;;;24.65;61.94
64886;BME280;51514;52.206;5.114;2023-07-29T12:19:41;100745.91;;;24.65;61.80
64886;BME280;51514;52.206;5.114;2023-07-29T12:22:08;100745.63;;;24.67;62.04
64886;BME280;51514;52.206;5.114;2023-07-29T12:24:36;100752.25;;;24.66;61.92
64886;BME280;51514;52.206;5.114;2023-07-29T12:27:01;100742.03;;;24.66;62.02
64886;BME280;51514;52.206;5.114;2023-07-29T12:29:27;100740.09;;;24.67;62.05
64886;BME280;51514;52.206;5.114;2023-07-29T12:32:01;100749.22;;;24.67;62.12
64886;BME280;51514;52.206;5.114;2023-07-29T12:34:28;100747.38;;;24.73;61.93
64886;BME280;51514;52.206;5.114;2023-07-29T12:36:55;100740.78;;;24.74;61.80
64886;BME280;51514;52.206;5.114;2023-07-29T12:39:26;100746.28;;;24.74;61.98
64886;BME280;51514;52.206;5.114;2023-07-29T12:41:53;100735.84;;;24.76;61.92
64886;BME280;51514;52.206;5.114;2023-07-29T12:44:19;100740.25;;;24.77;61.87
64886;BME280;51514;52.206;5.114;2023-07-29T12:46:45;100740.00;;;24.79;61.88
64886;BME280;51514;52.206;5.114;2023-07-29T12:49:10;100739.75;;;24.80;61.77
64886;BME280;51514;52.206;5.114;2023-07-29T12:51:36;100735.91;;;24.81;61.75
64886;BME280;51514;52.206;5.114;2023-07-29T12:54:03;100741.16;;;24.83;61.67
64886;BME280;51514;52.206;5.114;2023-07-29T12:56:29;100735.41;;;24.84;61.86
64886;BME280;51514;52.206;5.114;2023-07-29T12:58:56;100747.25;;;24.85;61.68
64886;BME280;51514;52.206;5.114;2023-07-29T13:01:22;100747.00;;;24.86;61.76